createdAt,value
2022-08-30T04:00:29.643Z,1.70
2022-08-30T04:05:29.515Z,2.30
2022-08-30T04:10:29.437Z,2.30
2022-08-30T04:15:36.438Z,2.30
2022-08-30T04:20:29.352Z,2.10
2022-08-30T04:25:29.299Z,2.60
2022-08-30T04:30:29.221Z,2.30
2022-08-30T04:35:29.186Z,2.50
2022-08-30T04:40:29.158Z,2.40
2022-08-30T04:45:29.133Z,2.40
2022-08-30T04:50:29.017Z,2.40
2022-08-30T04:55:28.964Z,2.60
2022-08-30T05:00:28.921Z,2.40
2022-08-30T05:05:28.845Z,2.30
2022-08-30T05:10:28.802Z,2.60
2022-08-30T05:15:28.738Z,2.70
2022-08-30T05:20:28.694Z,2.20
2022-08-30T05:25:28.644Z,2.30
2022-08-30T05:30:28.567Z,2.30
2022-08-30T05:35:28.539Z,2.40
2022-08-30T05:40:29.221Z,2.40
2022-08-30T05:45:28.419Z,2.30
2022-08-30T05:50:28.363Z,3.10
2022-08-30T05:55:28.303Z,2.20
2022-08-30T06:00:28.317Z,2.30
2022-08-30T06:05:28.212Z,2.20
2022-08-30T06:10:28.177Z,2.20
2022-08-30T06:15:28.198Z,2.00
2022-08-30T06:20:28.035Z,2.20
2022-08-30T06:25:27.993Z,2.20
2022-08-30T06:30:28.934Z,2.10
2022-08-30T06:35:27.865Z,2.40
2022-08-30T06:40:27.961Z,2.10
2022-08-30T06:45:27.773Z,2.10
2022-08-30T06:50:27.705Z,1.90
2022-08-30T06:55:27.660Z,2.00
2022-08-30T07:00:27.609Z,1.90
2022-08-30T07:05:27.535Z,2.10
2022-08-30T07:10:27.490Z,1.80
2022-08-30T07:15:27.624Z,2.30
2022-08-30T07:20:27.373Z,2.40
2022-08-30T07:25:27.323Z,2.40
2022-08-30T07:30:27.277Z,2.40
2022-08-30T07:35:27.202Z,2.10
2022-08-30T07:40:27.196Z,2.10
2022-08-30T07:45:27.093Z,2.30
2022-08-30T07:50:27.049Z,2.00
2022-08-30T07:55:26.994Z,1.90
2022-08-30T08:00:26.945Z,2.10
2022-08-30T08:05:27.033Z,1.90
2022-08-30T08:10:26.832Z,2.20
2022-08-30T08:15:26.780Z,2.00
2022-08-30T08:20:26.725Z,2.10
2022-08-30T08:25:26.671Z,2.30
2022-08-30T08:30:26.620Z,1.60
2022-08-30T08:35:26.568Z,1.80
2022-08-30T08:40:26.554Z,1.70
2022-08-30T08:45:26.455Z,1.60
2022-08-30T08:50:26.405Z,1.90
2022-08-30T08:55:26.356Z,1.30
2022-08-30T09:00:26.314Z,1.80
2022-08-30T09:05:26.350Z,1.40
2022-08-30T09:10:47.155Z,1.60
2022-08-30T09:15:27.171Z,1.50
2022-08-30T09:20:26.080Z,1.30
2022-08-30T09:25:26.031Z,1.50
2022-08-30T09:30:25.987Z,1.40
2022-08-30T09:35:25.957Z,1.60
2022-08-30T09:40:25.905Z,1.60
2022-08-30T09:45:27.851Z,2.00
2022-08-30T09:50:25.770Z,1.60
2022-08-30T09:55:25.806Z,2.10
2022-08-30T10:00:25.658Z,1.80
2022-08-30T10:05:25.612Z,1.80
2022-08-30T10:10:25.561Z,1.80
2022-08-30T10:15:32.538Z,1.90
2022-08-30T10:20:25.450Z,1.90
2022-08-30T10:25:25.410Z,2.00
2022-08-30T10:30:25.330Z,2.10
2022-08-30T10:35:25.289Z,1.90
2022-08-30T10:40:26.199Z,1.80
2022-08-30T10:45:25.185Z,1.90
2022-08-30T10:50:25.133Z,2.60
2022-08-30T10:55:25.077Z,2.20
2022-08-30T11:00:25.026Z,2.10
2022-08-30T11:05:24.970Z,2.30
2022-08-30T11:10:24.923Z,2.10
2022-08-30T11:15:24.866Z,2.10
2022-08-30T11:20:24.818Z,2.20
2022-08-30T11:25:24.760Z,2.10
2022-08-30T11:30:26.504Z,2.20
2022-08-30T11:35:24.650Z,2.20
2022-08-30T11:40:24.607Z,1.90
2022-08-30T11:45:25.167Z,2.20
2022-08-30T11:50:24.503Z,1.90
2022-08-30T11:55:24.460Z,1.80
2022-08-30T12:00:27.042Z,2.10
2022-08-30T12:05:24.333Z,1.90
2022-08-30T12:10:24.281Z,1.80
2022-08-30T12:15:24.225Z,2.10
2022-08-30T12:20:24.175Z,2.00
2022-08-30T12:25:24.122Z,1.60
2022-08-30T12:30:24.071Z,2.00
2022-08-30T12:35:24.013Z,2.00
2022-08-30T12:40:24.036Z,2.00
2022-08-30T12:45:23.995Z,1.80
2022-08-30T12:50:23.889Z,1.90
2022-08-30T12:55:23.805Z,1.90
2022-08-30T13:00:23.758Z,1.80
2022-08-30T13:05:23.696Z,1.50
2022-08-30T13:10:23.639Z,2.00
2022-08-30T13:15:23.586Z,1.70
2022-08-30T13:20:23.538Z,2.00
2022-08-30T13:25:23.482Z,1.80
2022-08-30T13:30:23.431Z,1.60
2022-08-30T13:35:23.429Z,1.80
2022-08-30T13:40:23.349Z,1.90
2022-08-30T13:50:24.218Z,1.70
2022-08-30T13:55:23.165Z,1.80
2022-08-30T14:00:23.424Z,1.70
2022-08-30T14:06:00.574Z,1.90
2022-08-30T14:10:31.799Z,2.00
2022-08-30T14:15:23.952Z,1.80
2022-08-30T14:20:22.893Z,1.80
2022-08-30T14:25:22.844Z,2.00
2022-08-30T14:30:22.795Z,1.80
2022-08-30T14:35:22.740Z,1.80
2022-08-30T14:40:22.786Z,1.90
2022-08-30T14:45:22.639Z,2.00
2022-08-30T14:50:22.582Z,2.10
2022-08-30T14:55:22.530Z,1.80
2022-08-30T15:00:22.473Z,2.00
2022-08-30T15:05:22.439Z,2.10
2022-08-30T15:10:22.373Z,1.80
2022-08-30T15:15:22.319Z,1.90
2022-08-30T15:20:22.263Z,2.00
2022-08-30T15:25:22.210Z,1.90
2022-08-30T15:30:22.154Z,2.30
2022-08-30T15:35:22.760Z,2.00
2022-08-30T15:40:22.100Z,1.90
2022-08-30T15:45:21.999Z,1.90
2022-08-30T15:50:21.943Z,1.70
2022-08-30T15:55:21.897Z,2.10
2022-08-30T16:00:21.839Z,1.80
2022-08-30T16:05:21.788Z,2.20
2022-08-30T16:10:21.730Z,1.90
2022-08-30T16:15:21.678Z,1.80
2022-08-30T16:20:21.624Z,2.10
2022-08-30T16:25:21.563Z,1.90
2022-08-30T16:30:21.510Z,2.20
2022-08-30T16:35:21.454Z,1.70
2022-08-30T16:40:21.451Z,2.20
2022-08-30T16:45:21.352Z,1.90
2022-08-30T16:50:21.294Z,2.30
2022-08-30T16:55:21.242Z,2.00
2022-08-30T17:00:21.194Z,1.60
2022-08-30T17:05:21.135Z,1.90
2022-08-30T17:10:23.409Z,2.10
2022-08-30T17:15:22.027Z,1.90
2022-08-30T17:20:20.975Z,1.80
2022-08-30T17:25:21.302Z,1.90
2022-08-30T17:30:20.876Z,1.80
2022-08-30T17:35:20.811Z,1.80
2022-08-30T17:40:20.782Z,1.80
2022-08-30T17:45:20.701Z,1.80
2022-08-30T17:50:20.647Z,1.70
2022-08-30T17:55:20.594Z,2.00
2022-08-30T18:00:20.560Z,1.50
2022-08-30T18:10:26.831Z,1.70
2022-08-30T18:15:21.373Z,1.70
2022-08-30T18:20:20.323Z,1.70
2022-08-30T18:25:20.263Z,1.50
2022-08-30T18:30:20.220Z,1.80
2022-08-30T18:35:20.158Z,1.60
2022-08-30T18:40:20.167Z,1.60
2022-08-30T18:45:20.045Z,1.80
2022-08-30T18:50:20.150Z,1.60
2022-08-30T18:55:19.941Z,1.70
2022-08-30T19:00:19.886Z,1.50
2022-08-30T19:05:19.832Z,1.70
2022-08-30T19:10:21.105Z,1.50
2022-08-30T19:15:19.734Z,1.70
2022-08-30T19:20:19.665Z,1.90
2022-08-30T19:25:19.614Z,1.70
2022-08-30T19:30:23.065Z,1.80
2022-08-30T19:35:19.590Z,1.70
2022-08-30T19:40:19.550Z,1.80
2022-08-30T19:45:21.783Z,2.00
2022-08-30T19:50:19.330Z,1.80
2022-08-30T19:55:19.297Z,1.50
2022-08-30T20:00:19.284Z,2.10
2022-08-30T20:05:19.170Z,2.00
2022-08-30T20:10:19.126Z,1.70
2022-08-30T20:15:19.080Z,1.80
2022-08-30T20:20:20.782Z,1.70
2022-08-30T20:24:26.426Z,1.40
2022-08-30T20:25:19.961Z,1.50
2022-08-30T20:30:18.904Z,1.70
2022-08-30T20:35:18.847Z,1.90
2022-08-30T20:40:18.844Z,1.70
2022-08-30T20:45:18.737Z,1.50
2022-08-30T20:50:18.681Z,1.70
2022-08-30T20:55:18.626Z,1.50
2022-08-30T21:00:18.571Z,1.50
2022-08-30T21:05:18.667Z,1.80
2022-08-30T21:10:23.125Z,1.50
2022-08-30T21:15:36.692Z,1.40
2022-08-30T21:20:19.364Z,1.50
2022-08-30T21:25:18.300Z,1.90
2022-08-30T21:30:18.242Z,1.80
2022-08-30T21:35:18.199Z,1.60
2022-08-30T21:40:18.166Z,1.80
2022-08-30T21:45:18.079Z,1.70
2022-08-30T21:50:18.022Z,1.70
2022-08-30T21:55:17.971Z,1.70
2022-08-30T22:00:17.913Z,1.60
2022-08-30T22:05:17.855Z,1.90
2022-08-30T22:10:17.798Z,1.80
2022-08-30T22:15:26.868Z,1.40
2022-08-30T22:20:18.673Z,1.90
2022-08-30T22:25:17.635Z,1.90
2022-08-30T22:30:17.579Z,1.70
2022-08-30T22:35:17.525Z,1.90
2022-08-30T22:40:17.537Z,2.00
2022-08-30T22:45:17.417Z,1.60
2022-08-30T22:50:17.353Z,1.70
2022-08-30T22:55:17.306Z,1.60
2022-08-30T23:00:17.246Z,1.70
2022-08-30T23:05:17.279Z,1.70
2022-08-30T23:10:17.141Z,1.50
2022-08-30T23:15:17.084Z,1.80
2022-08-30T23:20:17.022Z,1.80
2022-08-30T23:25:16.980Z,2.00
